Latest Weather Observations for Ballarat

IDV60801

Issued at 5:32 pm EST Wednesday 27 July 2016 (issued every 30 minutes, with the page automatically refreshed every 10 minutes)

About weather observations | Map of weather stations | Latest weather observations for VIC | Other Formats
Station Details ID: 089002 Name: BALLARAT AERODROME Lat: -37.51 Lon: 143.79 Height: 435.2 m
Data from the previous 72 hours. | See also: Recent months at Ballarat
Date/Time
EST
Temp
°C
App
Temp
°C
Dew
Point
°C
Rel
Hum
%
Delta-T
°C
Wind Press
QNH
hPa
Press
MSL
hPa
Rain since
9am
mm
Dir  Spd
km/h
Gust
km/h
Spd
kts
Gust
kts
27/05:30pm 6.2 1.1 5.9 98 0.1 W 22 33 12 18 1019.6 1020.5 0.2
27/05:00pm 6.9 2.0 4.9 87 0.9 WSW 20 30 11 16 1019.6 1020.5 0.2
27/04:30pm 7.1 0.4 3.9 80 1.4 WSW 28 35 15 19 1019.2 1020.1 0.2
27/04:00pm 7.4 1.4 5.2 86 1.0 WSW 26 35 14 19 1019.0 1019.9 0.2
27/03:30pm 7.3 1.7 5.3 87 0.9 WSW 24 33 13 18 1018.6 1019.4 0.2
27/03:00pm 6.5 -0.1 6.1 97 0.2 W 30 39 16 21 1018.3 1019.1 0.2
27/02:30pm 7.1 2.2 6.8 98 0.1 WSW 22 30 12 16 1017.6 1018.5 0.2
27/02:00pm 7.2 3.0 5.8 91 0.6 WSW 17 30 9 16 1017.4 1018.3 0.0
27/01:30pm 6.2 0.3 5.9 98 0.1 WSW 26 35 14 19 1017.2 1018.1 0.0
27/01:00pm 6.8 1.9 5.3 90 0.7 WSW 20 30 11 16 1017.2 1018.1 0.0
27/12:30pm 7.5 2.4 4.1 79 1.5 WSW 20 28 11 15 1016.8 1017.6 0.0
27/12:00pm 7.1 2.0 4.1 81 1.3 SW 20 32 11 17 1016.6 1017.4 0.0
27/11:30am 7.0 2.0 4.5 84 1.1 SW 20 33 11 18 1016.2 1017.0 0.0
27/11:00am 6.7 1.0 4.9 88 0.8 SW 24 39 13 21 1016.0 1016.8 0.0
27/10:30am 7.0 2.5 6.3 95 0.3 SW 19 26 10 14 1015.3 1016.2 0.0
27/10:00am 6.7 2.3 6.4 98 0.1 SW 19 30 10 16 1014.7 1015.5 0.0
27/09:32am 6.0 1.8 5.9 99 0.0 SSW 17 28 9 15 1014.4 1015.2 0.0
27/09:30am 5.8 1.6 5.7 99 0.0 SSW 17 28 9 15 1014.4 1015.2 0.0
27/09:27am 5.8 1.2 5.7 99 0.0 SSW 19 28 10 15 1014.3 1015.1 0.0
27/09:06am 5.8 0.6 5.7 99 0.0 SSW 22 41 12 22 1013.9 1014.7 0.0
27/09:00am 6.1 1.0 6.0 99 0.0 SW 22 35 12 19 1013.7 1014.5 2.2
27/08:30am 6.2 0.4 6.1 99 0.0 SSW 26 37 14 20 1012.7 1013.5 2.2
27/08:13am 6.1 0.2 6.0 99 0.0 SW 26 37 14 20 1012.3 1013.1 2.2
27/08:00am 6.3 1.3 6.3 100 0.0 SW 22 41 12 22 1011.9 1012.7 2.2
27/07:30am 6.5 1.1 6.5 100 0.0 SW 24 39 13 21 1011.0 1011.7 1.8
27/07:00am 6.5 1.5 6.5 100 0.0 WSW 22 32 12 17 1010.1 1010.9 1.6
27/06:30am 6.5 1.1 6.5 100 0.0 WSW 24 32 13 17 1009.5 1010.3 1.6
27/06:05am 6.5 1.5 6.5 100 0.0 WSW 22 30 12 16 1008.9 1009.6 1.6
27/06:00am 6.6 1.3 6.6 100 0.0 WSW 24 30 13 16 1008.8 1009.5 1.4
27/05:30am 6.4 1.4 6.4 100 0.0 W 22 32 12 17 1008.0 1008.8 1.4
27/05:04am 6.2 1.5 6.2 100 0.0 W 20 30 11 16 1007.6 1008.4 1.4
27/05:00am 6.2 1.5 6.2 100 0.0 W 20 28 11 15 1007.5 1008.3 1.4
27/04:40am 6.1 1.0 6.1 100 0.0 W 22 30 12 16 1007.2 1007.9 1.4
27/04:34am 6.1 1.0 6.1 100 0.0 W 22 32 12 17 1007.1 1007.8 1.4
27/04:30am 6.1 1.4 6.1 100 0.0 W 20 32 11 17 1007.0 1007.7 1.4
27/04:15am 6.0 0.9 6.0 100 0.0 WNW 22 28 12 15 1006.8 1007.5 1.4
27/04:11am 5.9 1.2 5.9 100 0.0 WNW 20 28 11 15 1006.7 1007.4 1.4
27/04:00am 5.8 1.6 5.8 100 0.0 WNW 17 22 9 12 1006.6 1007.3 1.4
27/03:30am 5.8 1.6 5.8 100 0.0 WNW 17 22 9 12 1006.2 1006.9 1.0
27/03:20am 5.8 1.2 5.8 100 0.0 WNW 19 22 10 12 1006.2 1006.9 1.0
27/03:00am 5.6 1.8 5.6 100 0.0 NW 15 19 8 10 1005.8 1006.6 1.0
27/02:56am 5.5 1.6 5.5 100 0.0 NNW 15 19 8 10 1005.7 1006.5 1.0
27/02:30am 5.2 1.3 5.2 100 0.0 NNW 15 17 8 9 1005.3 1006.0 1.0
27/02:00am 5.2 0.5 5.2 100 0.0 N 19 24 10 13 1005.1 1005.8 1.0
27/01:33am 5.2 0.5 5.2 100 0.0 N 19 24 10 13 1005.0 1005.7 1.0
27/01:30am 5.2 0.3 5.2 100 0.0 N 20 24 11 13 1005.0 1005.7 1.0
27/01:00am 5.0 -0.7 5.0 100 0.0 N 24 30 13 16 1004.9 1005.6 1.0
27/12:30am 5.1 -0.6 5.1 100 0.0 N 24 30 13 16 1005.0 1005.7 1.0
27/12:00am 5.2 -1.6 5.2 100 0.0 N 30 41 16 22 1004.9 1005.6 1.0
 
Date/Time
EST
Temp
°C
App
Temp
°C
Dew
Point
°C
Rel
Hum
%
Delta-T
°C
Wind Press
QNH
hPa
Press
MSL
hPa
Rain since
9am
mm
Dir  Spd
km/h
Gust
km/h
Spd
kts
Gust
kts
26/11:30pm 5.1 -2.3 5.1 100 0.0 N 33 43 18 23 1004.7 1005.4 1.0
26/11:00pm 5.0 -2.4 5.0 100 0.0 N 33 41 18 22 1004.9 1005.6 1.0
26/10:53pm 5.0 -2.2 5.0 100 0.0 N 32 39 17 21 1004.9 1005.6 1.0
26/10:30pm 4.9 -2.3 4.9 100 0.0 N 32 41 17 22 1005.0 1005.7 0.8
26/10:24pm 4.9 -2.5 4.9 100 0.0 N 33 43 18 23 1005.0 1005.7 0.8
26/10:00pm 4.9 -2.5 4.9 100 0.0 N 33 44 18 24 1005.4 1006.1 0.6
26/09:47pm 4.9 -2.5 4.9 100 0.0 N 33 43 18 23 1005.4 1006.1 0.2
26/09:30pm 4.7 -3.5 4.7 100 0.0 N 37 50 20 27 1005.3 1006.0 0.2
26/09:07pm 4.8 -4.2 4.7 99 0.0 N 41 52 22 28 1005.4 1006.1 0.2
26/09:00pm 4.9 -4.1 4.8 99 0.0 N 41 50 22 27 1005.6 1006.4 0.2
26/08:30pm 5.3 -2.1 5.0 98 0.1 N 33 44 18 24 1006.2 1006.9 0.0
26/08:07pm 5.4 -2.7 5.1 98 0.1 N 37 56 20 30 1006.3 1007.0 0.0
26/08:02pm 5.5 -2.6 5.2 98 0.1 N 37 56 20 30 1006.2 1006.9 0.0
26/08:00pm 5.5 -3.0 5.2 98 0.1 N 39 56 21 30 1006.2 1006.9 0.0
26/07:30pm 5.3 -2.9 5.0 98 0.1 N 37 48 20 26 1006.6 1007.3 0.0
26/07:00pm 5.7 -2.4 5.4 98 0.1 N 37 48 20 26 1006.9 1007.6 0.0
26/06:30pm 5.5 -3.4 5.2 98 0.1 N 41 56 22 30 1007.0 1007.7 0.0
26/06:20pm 5.6 -3.3 5.3 98 0.1 NNW 41 61 22 33 1007.0 1007.7 0.0
26/06:00pm 5.6 -1.5 5.5 99 0.0 N 32 43 17 23 1007.1 1007.8 0.0
26/05:35pm 5.5 -1.6 5.4 99 0.0 N 32 43 17 23 1007.4 1008.2 0.0
26/05:30pm 5.6 -1.7 5.5 99 0.0 N 33 44 18 24 1007.4 1008.2 0.0
26/05:21pm 5.6 -1.7 5.5 99 0.0 N 33 43 18 23 1007.4 1008.2 0.0
26/05:00pm 5.6 -1.5 5.3 98 0.1 N 32 39 17 21 1007.6 1008.4 0.0
26/04:30pm 5.7 -2.0 5.4 98 0.1 NNW 35 43 19 23 1007.9 1008.7 0.0
26/04:00pm 5.9 -1.4 5.6 98 0.1 N 33 41 18 22 1008.0 1008.8 0.0
26/03:54pm 5.8 -1.9 5.5 98 0.1 N 35 46 19 25 1008.1 1008.9 0.0
26/03:30pm 6.3 -0.9 6.0 98 0.1 N 33 41 18 22 1008.7 1009.4 0.0
26/03:06pm 5.8 -0.9 5.5 98 0.1 N 30 35 16 19 1009.0 1009.7 0.0
26/03:00pm 5.7 -1.0 5.4 98 0.1 N 30 39 16 21 1009.0 1009.7 0.0
26/02:33pm 5.4 -1.4 5.1 98 0.1 N 30 37 16 20 1009.4 1010.2 0.0
26/02:30pm 5.2 -1.6 4.9 98 0.1 N 30 35 16 19 1009.4 1010.2 0.0
26/02:18pm 5.2 -2.6 4.9 98 0.1 NNW 35 43 19 23 1009.5 1010.3 0.0
26/02:00pm 5.7 -0.7 5.4 98 0.1 N 28 39 15 21 1009.8 1010.6 0.0
26/01:34pm 5.3 -2.1 5.0 98 0.1 N 33 37 18 20 1010.2 1011.0 0.0
26/01:30pm 5.3 -2.1 5.0 98 0.1 N 33 37 18 20 1010.3 1011.1 0.0
26/01:15pm 5.2 -2.0 4.9 98 0.1 N 32 43 17 23 1010.6 1011.4 0.0
26/01:09pm 5.3 -1.9 5.0 98 0.1 N 32 41 17 22 1010.9 1011.6 0.0
26/01:00pm 5.6 -1.5 5.3 98 0.1 NNW 32 41 17 22 1011.0 1011.7 0.0
26/12:30pm 5.1 -2.1 4.8 98 0.1 N 32 37 17 20 1011.3 1012.1 0.0
26/12:00pm 5.2 -2.2 4.9 98 0.1 N 33 43 18 23 1011.8 1012.6 0.0
26/11:30am 4.7 -2.6 4.6 99 0.0 N 32 39 17 21 1012.2 1013.0 0.0
26/11:00am 4.2 -2.8 4.1 99 0.0 N 30 35 16 19 1012.4 1013.2 0.0
26/10:30am 3.6 -3.9 3.5 99 0.0 N 32 39 17 21 1012.5 1013.3 0.0
26/10:00am 3.1 -4.1 3.1 100 0.0 N 30 37 16 20 1012.4 1013.2 0.0
26/09:43am 2.7 -4.6 2.7 100 0.0 N 30 37 16 20 1012.4 1013.2 0.0
26/09:30am 2.3 -4.6 2.3 100 0.0 N 28 33 15 18 1012.5 1013.3 0.0
26/09:00am 1.8 -4.5 1.8 100 0.0 N 24 32 13 17 1012.3 1013.1 6.6
26/08:30am 1.7 -4.6 1.7 100 0.0 NNE 24 32 13 17 1012.1 1012.9 6.6
26/08:22am 1.5 -4.8 1.4 99 0.0 NNE 24 32 13 17 1012.0 1012.8 6.6
26/08:00am 1.5 -4.1 1.4 99 0.0 N 20 26 11 14 1012.0 1012.8 6.6
26/07:30am 1.3 -4.3 1.2 99 0.0 N 20 24 11 13 1011.5 1012.3 6.6
26/07:00am 1.2 -3.9 0.9 98 0.1 N 17 20 9 11 1011.0 1011.7 6.6
26/06:30am 1.0 -3.7 0.7 98 0.1 N 15 19 8 10 1010.5 1011.3 6.6
26/06:00am 2.3 -3.2 2.0 98 0.1 NW 20 24 11 13 1010.1 1010.9 6.6
26/05:30am 2.6 -2.6 2.3 98 0.1 NW 19 24 10 13 1010.1 1010.9 6.6
26/05:00am 3.0 -2.4 2.4 96 0.2 NW 20 33 11 18 1009.8 1010.6 6.6
26/04:30am 2.4 -3.1 2.1 98 0.1 NW 20 26 11 14 1009.7 1010.5 6.6
26/04:00am 2.8 -2.4 2.5 98 0.1 NW 19 22 10 12 1009.8 1010.6 6.6
26/03:30am 3.0 -2.2 2.7 98 0.1 NNW 19 24 10 13 1009.7 1010.5 6.6
26/03:00am 2.9 -2.3 2.2 95 0.3 NNW 19 28 10 15 1009.6 1010.4 6.6
26/02:30am 3.4 -1.9 1.9 90 0.6 NW 19 24 10 13 1009.8 1010.6 6.6
26/02:00am 3.1 -2.2 1.6 90 0.6 NW 19 22 10 12 1009.7 1010.5 6.6
26/01:30am 3.4 -2.9 1.6 88 0.7 NW 24 32 13 17 1009.4 1010.2 6.6
26/01:00am 3.6 -2.7 1.6 87 0.8 NW 24 33 13 18 1009.0 1009.7 6.6
26/12:30am 3.6 -3.9 1.5 86 0.8 NW 30 41 16 22 1009.0 1009.7 6.6
26/12:00am 3.7 -3.7 2.1 89 0.7 WNW 30 39 16 21 1008.7 1009.4 6.6
 
Date/Time
EST
Temp
°C
App
Temp
°C
Dew
Point
°C
Rel
Hum
%
Delta-T
°C
Wind Press
QNH
hPa
Press
MSL
hPa
Rain since
9am
mm
Dir  Spd
km/h
Gust
km/h
Spd
kts
Gust
kts
25/11:30pm 3.6 -2.9 2.4 92 0.5 WNW 26 35 14 19 1008.5 1009.2 6.6
25/11:00pm 3.9 -2.7 2.1 88 0.7 NW 26 33 14 18 1008.4 1009.1 6.6
25/10:30pm 4.0 -2.2 2.4 89 0.7 WNW 24 35 13 19 1008.1 1008.9 6.6
25/10:00pm 4.0 -2.0 3.4 96 0.3 WNW 24 33 13 18 1007.9 1008.7 6.6
25/09:30pm 3.9 -1.7 3.6 98 0.1 WNW 22 30 12 16 1007.8 1008.6 6.6
25/09:00pm 4.0 -3.5 3.7 98 0.1 WNW 32 44 17 24 1007.6 1008.4 6.6
25/08:37pm 4.0 -4.4 3.7 98 0.1 W 37 50 20 27 1007.3 1008.0 6.6
25/08:30pm 4.0 -4.0 3.9 99 0.0 W 35 52 19 28 1007.1 1007.8 6.6
25/08:21pm 3.7 -4.7 3.6 99 0.0 W 37 56 20 30 1007.2 1007.9 6.6
25/08:18pm 3.6 -4.5 3.5 99 0.0 W 35 56 19 30 1007.2 1007.9 6.4
25/08:00pm 2.7 -7.0 2.6 99 0.0 W 43 61 23 33 1007.2 1007.9 6.0
25/07:54pm 2.8 -5.1 2.5 98 0.1 W 33 61 18 33 1007.2 1007.9 5.8
25/07:51pm 4.3 -2.4 3.4 94 0.4 WNW 28 61 15 33 1007.2 1007.9 5.6
25/07:30pm 5.8 -0.2 5.4 97 0.2 NW 26 33 14 18 1005.6 1006.4 5.6
25/07:00pm 6.7 -0.4 5.7 93 0.5 NW 32 46 17 25 1005.2 1005.9 5.6
25/06:49pm 6.7 -0.5 6.0 95 0.3 WNW 33 57 18 31 1005.0 1005.7 5.6
25/06:30pm 6.6 -0.5 6.3 98 0.1 WNW 33 43 18 23 1004.8 1005.5 5.6
25/06:05pm 6.9 -2.1 6.6 98 0.1 WNW 43 67 23 36 1004.6 1005.3 5.6
25/06:00pm 6.9 -3.0 6.6 98 0.1 NW 48 67 26 36 1004.7 1005.4 5.6
25/05:35pm 7.4 -2.3 7.3 99 0.0 NW 48 67 26 36 1004.1 1004.8 3.0
25/05:30pm 7.5 -2.6 7.4 99 0.0 NW 50 67 27 36 1003.7 1004.4 2.2
25/05:01pm 7.7 -3.5 7.6 99 0.0 NNW 56 78 30 42 1002.6 1003.3 1.2
25/05:00pm 7.6 -3.2 7.5 99 0.0 NNW 54 78 29 42 1002.5 1003.2 1.2
25/04:57pm 7.7 -3.1 7.6 99 0.0 NNW 54 78 29 42 1002.3 1003.0 1.0
25/04:47pm 7.6 -2.5 7.5 99 0.0 NNW 50 65 27 35 1002.4 1003.1 0.6
25/04:30pm 7.7 -2.0 7.6 99 0.0 N 48 65 26 35 1002.3 1003.0 0.2
25/04:18pm 7.7 -1.6 7.6 99 0.0 N 46 65 25 35 1002.6 1003.3 0.2
25/04:00pm 7.8 -2.3 7.5 98 0.1 N 50 65 27 35 1002.7 1003.4 0.2
25/03:30pm 8.0 -0.8 7.9 99 0.0 NNW 44 59 24 32 1003.4 1004.1 0.2
25/03:00pm 8.0 -0.9 7.7 98 0.1 N 44 59 24 32 1004.0 1004.7 0.2
25/02:58pm 8.0 -0.3 7.7 98 0.1 N 41 59 22 32 1004.1 1004.8 0.2
25/02:56pm 8.0 0.1 7.7 98 0.1 N 39 56 21 30 1004.2 1004.9 0.2
25/02:53pm 8.0 0.4 7.7 98 0.1 N 37 56 20 30 1004.2 1004.9 0.2
25/02:51pm 7.9 0.7 7.8 99 0.0 N 35 56 19 30 1004.2 1004.9 0.2
25/02:43pm 7.9 0.3 7.6 98 0.1 N 37 46 20 25 1004.4 1005.1 0.2
25/02:30pm 7.9 0.4 7.8 99 0.0 NNW 37 48 20 26 1004.9 1005.6 0.2
25/02:25pm 7.6 -0.4 7.3 98 0.1 NNW 39 48 21 26 1005.1 1005.8 0.2
25/02:23pm 7.5 -0.6 7.2 98 0.1 N 39 48 21 26 1005.1 1005.8 0.2
25/02:00pm 8.5 -0.1 6.3 86 1.0 NNW 41 54 22 29 1005.4 1006.1 0.2
25/01:30pm 8.6 0.6 5.5 81 1.4 N 37 50 20 27 1005.6 1006.4 0.2
25/01:00pm 8.9 0.4 5.1 77 1.8 NNW 39 48 21 26 1006.7 1007.4 0.2
25/12:30pm 8.7 0.0 4.1 73 2.1 NNW 39 48 21 26 1007.3 1008.0 0.2
25/12:00pm 9.3 1.5 5.1 75 1.9 NNW 35 46 19 25 1008.1 1008.9 0.2
25/11:30am 8.5 1.8 5.4 81 1.4 NNW 30 37 16 20 1008.7 1009.4 0.2
25/11:00am 8.1 2.6 6.1 87 0.9 NNW 24 33 13 18 1008.9 1009.6 0.0
25/10:30am 8.5 2.3 6.3 86 1.0 NW 28 39 15 21 1009.1 1009.8 0.0
25/10:02am 7.2 1.2 6.9 98 0.1 NW 28 35 15 19 1009.3 1010.0 0.0
25/10:00am 7.1 1.0 6.8 98 0.1 NW 28 41 15 22 1009.4 1010.2 0.0
25/09:30am 6.7 1.4 6.6 99 0.0 NW 24 28 13 15 1009.2 1009.9 0.0
25/09:00am 6.2 1.5 6.1 99 0.0 WNW 20 26 11 14 1009.2 1009.9 1.0
25/08:30am 6.0 0.5 5.9 99 0.0 WNW 24 30 13 16 1009.1 1009.8 1.0
25/08:03am 5.7 0.5 5.7 100 0.0 WNW 22 32 12 17 1008.9 1009.6 1.0
25/08:00am 5.7 0.2 5.7 100 0.0 WNW 24 32 13 17 1008.9 1009.6 1.0
25/07:39am 5.7 -0.6 5.6 99 0.0 WNW 28 39 15 21 1008.5 1009.2 1.0
25/07:30am 5.9 -0.4 5.8 99 0.0 WNW 28 37 15 20 1008.2 1009.0 1.0
25/07:00am 5.9 0.4 5.8 99 0.0 WNW 24 30 13 16 1008.0 1008.8 1.0
25/06:30am 5.4 1.1 5.4 100 0.0 NW 17 26 9 14 1007.6 1008.4 1.0
25/06:24am 4.4 -0.1 4.4 100 0.0 NNW 17 20 9 11 1007.5 1008.3 1.0
25/06:00am 4.4 -0.5 4.3 99 0.0 N 19 24 10 13 1007.2 1007.9 1.0
25/05:30am 4.2 -0.7 4.2 100 0.0 N 19 24 10 13 1006.9 1007.6 1.0
25/05:00am 3.9 -1.2 3.9 100 0.0 N 20 24 11 13 1006.7 1007.4 1.0
25/04:30am 3.7 -0.9 3.7 100 0.0 N 17 20 9 11 1006.3 1007.0 1.0
25/04:00am 4.0 -1.1 3.9 99 0.0 N 20 28 11 15 1006.2 1006.9 1.0
25/03:30am 4.0 -1.1 4.0 100 0.0 N 20 24 11 13 1005.7 1006.5 1.0
25/03:00am 4.0 -1.5 3.9 99 0.0 N 22 28 12 15 1005.8 1006.6 1.0
25/02:30am 3.9 -1.3 3.8 99 0.0 N 20 24 11 13 1005.5 1006.3 1.0
25/02:00am 4.0 -1.1 3.9 99 0.0 N 20 22 11 12 1005.4 1006.1 1.0
25/01:30am 3.3 -1.4 3.3 100 0.0 N 17 20 9 11 1005.3 1006.0 1.0
25/01:00am 3.2 -1.1 3.1 99 0.0 N 15 20 8 11 1005.0 1005.7 1.0
25/12:45am 3.7 -1.3 3.6 99 0.0 N 19 24 10 13 1004.9 1005.6 1.0
25/12:30am 4.2 -0.9 4.1 99 0.0 NNW 20 24 11 13 1005.0 1005.7 1.0
25/12:00am 4.7 -1.1 4.6 99 0.0 NNW 24 32 13 17 1004.9 1005.6 1.0
 
Date/Time
EST
Temp
°C
App
Temp
°C
Dew
Point
°C
Rel
Hum
%
Delta-T
°C
Wind Press
QNH
hPa
Press
MSL
hPa
Rain since
9am
mm
Dir  Spd
km/h
Gust
km/h
Spd
kts
Gust
kts
24/11:48pm 5.0 -0.7 4.9 99 0.0 NNW 24 30 13 16 1004.9 1005.6 1.0
24/11:30pm 4.8 -0.5 4.8 100 0.0 N 22 30 12 16 1004.7 1005.4 1.0
24/11:27pm 4.7 -0.3 4.7 100 0.0 N 20 26 11 14 1004.7 1005.4 1.0
24/11:00pm 5.0 -1.1 5.0 100 0.0 N 26 32 14 17 1004.6 1005.3 1.0
24/10:42pm 4.9 -0.8 4.9 100 0.0 N 24 30 13 16 1004.4 1005.1 1.0
24/10:38pm 4.9 -0.8 4.9 100 0.0 N 24 30 13 16 1004.4 1005.1 1.0
24/10:30pm 4.9 -0.8 4.8 99 0.0 N 24 30 13 16 1004.4 1005.1 1.0
24/10:27pm 4.9 -0.8 4.8 99 0.0 N 24 30 13 16 1004.4 1005.1 1.0
24/10:00pm 4.5 -0.9 4.4 99 0.0 N 22 26 12 14 1004.5 1005.2 1.0
24/09:30pm 4.7 -1.1 4.6 99 0.0 N 24 30 13 16 1004.3 1005.0 1.0
24/09:10pm 4.6 -0.8 4.5 99 0.0 NNW 22 28 12 15 1004.5 1005.2 1.0
24/09:00pm 5.0 -0.7 4.7 98 0.1 NNW 24 32 13 17 1004.5 1005.2 1.0
24/08:30pm 5.2 -0.5 5.1 99 0.0 NNW 24 30 13 16 1004.4 1005.1 1.0
24/08:19pm 5.3 -1.1 5.0 98 0.1 NNW 28 35 15 19 1004.4 1005.1 1.0
24/08:00pm 5.4 -1.4 5.1 98 0.1 NNW 30 37 16 20 1004.4 1005.1 1.0
24/07:30pm 5.4 -1.0 5.1 98 0.1 NNW 28 37 15 20 1004.1 1004.8 1.0
24/07:25pm 5.3 -0.7 5.2 99 0.0 NNW 26 35 14 19 1004.0 1004.7 1.0
24/07:10pm 5.5 -1.2 5.4 99 0.0 NNW 30 37 16 20 1003.9 1004.6 1.0
24/07:00pm 5.4 -1.0 5.3 99 0.0 NNW 28 35 15 19 1003.9 1004.6 1.0
24/06:39pm 5.4 -1.7 5.3 99 0.0 N 32 39 17 21 1003.9 1004.6 1.0
24/06:30pm 5.5 -2.2 5.4 99 0.0 N 35 44 19 24 1003.8 1004.5 1.0
24/06:04pm 5.7 -1.0 5.6 99 0.0 N 30 41 16 22 1003.4 1004.1 0.8
24/06:00pm 5.8 -0.9 5.7 99 0.0 N 30 37 16 20 1003.3 1004.0 0.8

Other Formats:

Comma delimited format used in spreadsheet applications
http://www.bom.gov.au/fwo/IDV60801/IDV60801.94852.axf

JavaScript Object Notation format (JSON) in row-major order
http://www.bom.gov.au/fwo/IDV60801/IDV60801.94852.json